Weather reports worldwide

Advertisment
Fyvie castle, United Kingdom (99010): temperature & dewpoint: 15.05.2019 04:00:00 - 21.05.2019 04:00:00 (BST)Fyvie castle, United Kingdom (99010): precipitation: 15.05.2019 04:00:00 - 21.05.2019 04:00:00 (BST)
Date & Time tt [°C] td [°C] rr [mm]
21.05.2019 04:00:00 9,4 8,9 0,2
21.05.2019 03:00:00 9,5 9,2 0,0
21.05.2019 02:00:00 9,4 9,0 0,0
21.05.2019 01:00:00 9,4 8,8 0,0
21.05.2019 00:00:00 9,5 8,8 0,0
20.05.2019 23:00:00 9,9 8,8 0,0
20.05.2019 22:00:00 10,5 9,3 0,0
20.05.2019 21:00:00 11,0 9,4 0,0
20.05.2019 20:00:00 11,8 9,7 0,0
20.05.2019 19:00:00 12,9 10,1 0,0
20.05.2019 18:00:00 13,6 10,4 0,0
20.05.2019 17:00:00 13,9 10,4 0,0
20.05.2019 16:00:00 14,3 10,3 0,0
20.05.2019 15:00:00 13,2 10,4 0,0
20.05.2019 14:00:00 14,6 10,6 0,0
20.05.2019 13:00:00 14,0 10,7 0,0
20.05.2019 12:00:00 12,8 10,3 0,0
20.05.2019 11:00:00 11,7 10,8 0,0
20.05.2019 10:00:00 11,3 10,8 0,4
20.05.2019 09:00:00 11,3 11,1 0,0
20.05.2019 08:00:00 10,6 10,5 0,0
20.05.2019 07:00:00 10,0 9,8 0,0
20.05.2019 06:00:00 9,7 9,5 0,0
20.05.2019 05:00:00 9,5 9,1 0,0
20.05.2019 04:00:00 9,6 9,2 1,2
20.05.2019 03:00:00 9,5 9,2 0,0
20.05.2019 02:00:00 9,4 9,0 0,0
20.05.2019 01:00:00 9,4 9,0 0,0
20.05.2019 00:00:00 9,3 8,8 0,0
19.05.2019 23:00:00 10,0 9,0 0,0
19.05.2019 22:00:00 11,3 9,3 0,0
19.05.2019 21:00:00 13,6 10,3 0,0
19.05.2019 20:00:00 14,2 10,6 0,0
19.05.2019 19:00:00 14,7 10,2 0,0
19.05.2019 18:00:00 15,4 10,2 0,0
19.05.2019 17:00:00 15,3 10,7 0,0
19.05.2019 16:00:00 15,8 11,1 0,0
19.05.2019 15:00:00 14,6 10,5 0,0
19.05.2019 14:00:00 17,0 10,9 0,0
19.05.2019 13:00:00 15,3 10,9 0,0
19.05.2019 12:00:00 12,8 9,5 0,0
19.05.2019 11:00:00 12,7 9,7 0,0
19.05.2019 10:00:00 12,1 10,2 0,0
19.05.2019 09:00:00 10,5 10,2 0,2
19.05.2019 08:00:00 10,0 9,8 0,0
19.05.2019 07:00:00 9,6 9,5 0,0
19.05.2019 06:00:00 9,4 9,2 0,0
19.05.2019 05:00:00 9,4 9,2 0,0
19.05.2019 04:00:00 9,4 9,2 0,0
19.05.2019 03:00:00 9,5 9,2 0,0
19.05.2019 02:00:00 9,6 9,2 0,2
19.05.2019 01:00:00 9,7 9,3 0,0
19.05.2019 00:00:00 9,8 9,2 0,0
18.05.2019 23:00:00 9,8 9,1 0,0
18.05.2019 22:00:00 10,0 9,4 0,0
18.05.2019 21:00:00 10,0 9,3 0,0
18.05.2019 20:00:00 10,1 9,2 0,0
18.05.2019 19:00:00 11,0 10,0 0,0
18.05.2019 18:00:00 10,9 9,9 0,0
18.05.2019 17:00:00 10,8 9,8 0,0
18.05.2019 16:00:00 10,7 9,6 0,0
18.05.2019 15:00:00 10,9 10,0 0,2
18.05.2019 14:00:00 10,4 9,9 0,2
18.05.2019 13:00:00 10,3 9,6 0,4
18.05.2019 12:00:00 9,9 9,1 1,6
18.05.2019 11:00:00 10,3 8,7 0,2
18.05.2019 10:00:00 10,5 8,5 0,2
18.05.2019 09:00:00 10,1 8,7 0,4
18.05.2019 08:00:00 10,1 8,3 0,2
18.05.2019 07:00:00 10,0 8,5 0,0
18.05.2019 06:00:00 9,5 9,0 0,0
18.05.2019 05:00:00 9,2 8,5 0,2
18.05.2019 04:00:00 9,1 8,5 0,0
18.05.2019 03:00:00 9,2 8,5 0,2
18.05.2019 02:00:00 9,4 8,5 0,8
18.05.2019 01:00:00 9,6 8,4 0,0
18.05.2019 00:00:00 9,9 8,2 0,0
17.05.2019 23:00:00 10,1 8,3 0,2
17.05.2019 22:00:00 10,0 8,2 0,4
17.05.2019 21:00:00 10,6 6,9 0,0
17.05.2019 20:00:00 12,4 5,7 0,0
17.05.2019 19:00:00 13,5 5,7 0,0
17.05.2019 18:00:00 14,6 4,6 0,0
17.05.2019 17:00:00 15,7 4,7 0,0
17.05.2019 16:00:00 16,6 2,6 0,0
17.05.2019 15:00:00 16,8 2,5 0,0
17.05.2019 14:00:00 16,4 7,1 0,0
17.05.2019 13:00:00 17,1 7,9 0,0
17.05.2019 12:00:00 16,6 4,3 0,0
17.05.2019 11:00:00 16,1 4,9 0,0
17.05.2019 10:00:00 13,5 7,7 0,0
17.05.2019 09:00:00 10,8 9,4 0,0
17.05.2019 08:00:00 8,3 8,2 0,0
17.05.2019 07:00:00 7,0 6,9 0,0
17.05.2019 06:00:00 6,8 6,7 0,0
17.05.2019 05:00:00 7,0 6,9 0,0
17.05.2019 04:00:00 7,0 6,9 0,0
17.05.2019 03:00:00 6,8 6,7 0,0
17.05.2019 02:00:00 6,9 6,8 0,0
17.05.2019 01:00:00 7,0 6,9 0,0
17.05.2019 00:00:00 5,4 4,8 0,0
16.05.2019 23:00:00 6,1 5,1 0,0
16.05.2019 22:00:00 7,6 6,1 0,0
16.05.2019 21:00:00 9,4 6,3 0,0
16.05.2019 20:00:00 10,5 5,1 0,0
16.05.2019 19:00:00 11,3 5,5 0,0
16.05.2019 18:00:00 12,8 6,0 0,0
16.05.2019 17:00:00 14,2 5,7 0,0
16.05.2019 16:00:00 15,5 6,5 0,0
16.05.2019 15:00:00 15,7 4,9 0,0
16.05.2019 14:00:00 15,1 5,4 0,0
16.05.2019 13:00:00 14,9 6,1 0,0
16.05.2019 12:00:00 14,5 5,3 0,0
16.05.2019 11:00:00 13,8 6,6 0,0
16.05.2019 10:00:00 13,3 6,8 0,0
16.05.2019 09:00:00 11,4 7,0 0,0
16.05.2019 08:00:00 9,7 7,2 0,0
16.05.2019 07:00:00 8,4 7,5 0,0
16.05.2019 06:00:00 8,1 6,5 0,0
16.05.2019 05:00:00 8,3 6,9 0,0
16.05.2019 04:00:00 8,1 6,6 0,0
16.05.2019 03:00:00 8,6 7,3 0,0
16.05.2019 02:00:00 8,5 7,2 0,0
16.05.2019 01:00:00 8,6 7,7 0,0
16.05.2019 00:00:00 8,8 8,0 0,0
15.05.2019 23:00:00 8,6 7,8 0,0
15.05.2019 22:00:00 8,8 8,0 0,0
15.05.2019 21:00:00 10,4 8,1 0,0
15.05.2019 20:00:00 12,0 8,6 0,0
15.05.2019 19:00:00 13,7 8,6 0,0
15.05.2019 18:00:00 17,4 7,7 0,0
15.05.2019 17:00:00 18,4 8,6 0,0
15.05.2019 16:00:00 18,8 8,3 0,0
15.05.2019 15:00:00 18,5 9,0 0,0
15.05.2019 14:00:00 18,8 9,2 0,0
15.05.2019 13:00:00 19,2 9,1 0,0
15.05.2019 12:00:00 19,4 11,3 0,0
15.05.2019 11:00:00 19,1 10,9 0,0
15.05.2019 10:00:00 15,8 11,2 0,0
15.05.2019 09:00:00 11,8 11,8 0,0
15.05.2019 08:00:00 7,1 7,1 0,0
15.05.2019 07:00:00 5,5 5,5 0,0
15.05.2019 06:00:00 4,2 4,0 0,0
15.05.2019 05:00:00 4,2 3,9 0,0
15.05.2019 04:00:00 4,6 4,2 0,0

tt = temperature
td = dewpoint
rr = precipitation

Next stations